Consulta les dades en temps real de l'estació municipal de Susqueda - Veïnat del Coll
| Hora UTC | 02:00 |
|---|---|
| Temperatura | 6.7 ºC |
| Humitat | 86.0 % |
| Pressió | 1013.6 hPa |
| Pluja | 0.0 mm |
| Velocitat vent | 7.0 km/h |
| Direcció vent | SSE |
| Radiació solar | 0.1 W/m² |
| Temperatura (ºC) | Humitat (%) | Pressió (hPa) | Velocitat vent (km/h) | Precipitació (mm) | Radiació solar (W/m²) | |||||||||||||
|---|---|---|---|---|---|---|---|---|---|---|---|---|---|---|---|---|---|---|
| Hora UTC | Aire | Humitat | Pressió | Vel. | Dir. | Vel. Max | Dir. | Intent. màx 5 min. | Rad. Sol. | |||||||||
| 00:05 | 7.0 | 98.0 | 1014.3 | 2.8 | ESE | 2.8 | ESE | 0.0 | 0.1 | |||||||||
| 00:10 | 7.1 | 98.0 | 1014.3 | 3.4 | ESE | 5.3 | E | 0.0 | 0.1 | |||||||||
| 00:15 | 7.1 | 97.7 | 1014.2 | 2.2 | ESE | 4.9 | SE | 0.0 | 0.1 | |||||||||
| 00:20 | 7.1 | 97.7 | 1014.2 | 1.3 | ENE | 3.2 | ENE | 0.0 | 0.1 | |||||||||
| 00:25 | 7.1 | 97.6 | 1014.2 | 1.1 | ENE | 3.5 | ENE | 0.0 | 0.1 | |||||||||
| 00:30 | 7.1 | 97.4 | 1014.2 | 2.8 | E | 4.9 | E | 0.0 | 0.1 | |||||||||
| 00:35 | 7.0 | 97.0 | 1014.1 | 2.2 | ESE | 4.2 | ESE | 0.0 | 0.1 | |||||||||
| 00:40 | 6.9 | 97.0 | 1014.1 | 2.5 | ESE | 4.9 | E | 0.0 | 0.1 | |||||||||
| 00:45 | 6.8 | 96.8 | 1014.1 | 4.3 | SE | 6.4 | SE | 0.0 | 0.1 | |||||||||
| 00:50 | 6.7 | 96.3 | 1014.1 | 5.9 | SE | 9.5 | SE | 0.0 | 0.1 | |||||||||
| 00:55 | 6.6 | 95.3 | 1014.0 | 5.6 | SE | 8.5 | SE | 0.0 | 0.2 | |||||||||
| 01:00 | 6.5 | 93.5 | 1014.0 | 6.9 | SE | 9.9 | SE | 0.0 | 0.1 | |||||||||
| 01:05 | 6.5 | 91.3 | 1013.8 | 5.2 | SE | 8.5 | SE | 0.0 | 0.1 | |||||||||
| 01:10 | 6.4 | 90.4 | 1013.8 | 4.7 | SE | 9.9 | SE | 0.0 | 0.1 | |||||||||
| 01:15 | 6.4 | 89.7 | 1013.7 | 7.9 | SE | 10.6 | SE | 0.0 | 0.1 | |||||||||
| 01:20 | 6.6 | 88.9 | 1013.7 | 7.3 | SE | 9.9 | ESE | 0.0 | 0.1 | |||||||||
| 01:25 | 6.6 | 89.1 | 1013.7 | 8.5 | SE | 10.9 | SE | 0.0 | 0.1 | |||||||||
| 01:30 | 6.6 | 88.8 | 1013.7 | 6.7 | SE | 12.0 | SE | 0.0 | 0.1 | |||||||||
| 01:35 | 6.6 | 87.7 | 1013.6 | 7.8 | SE | 11.3 | SE | 0.0 | 0.1 | |||||||||
| 01:40 | 6.7 | 86.4 | 1013.6 | 7.8 | SE | 11.3 | ESE | 0.0 | 0.1 | |||||||||
| 01:45 | 6.7 | 86.4 | 1013.6 | 9.0 | SE | 11.6 | SE | 0.0 | 0.1 | |||||||||
| 01:50 | 6.7 | 86.0 | 1013.6 | 9.4 | SE | 13.1 | SE | 0.0 | 0.1 | |||||||||
| 01:55 | 6.7 | 85.8 | 1013.6 | 9.0 | SE | 14.1 | SE | 0.0 | 0.1 | |||||||||
| 02:00 | 6.7 | 86.0 | 1013.6 | 7.0 | SSE | 12.0 | S | 0.0 | 0.1 | |||||||||
| Màxima | 7.1 | 98.0 | 1014.3 | 9.4 | SE | 14.1 | SE | 0.0 | 0.2 | |||||||||
| Mínima | 6.4 | 85.8 | 1013.6 | |||||||||||||||
| Total | 0.0 | |||||||||||||||||